首页
METAR-TAF:

METAR-TAF

机场 :

Minocqua / Woodruff, 威斯康辛州, 美国

纬度: 45-56N, 经度: 089-44W, 海拔: 496米

当前天气观测

该预报发布于15分钟前的05:15 UTC
风速4节,风向
温度 0°C
湿度 93%
气压 1010 hPa
能見度: 11.3公里
阴天层高于500英尺
小雪

METAR: KARV 250515Z AUTO 01004KT 7SM -SN OVC005 00/M01 A2983 RMK AO2 T00001008

时间: 23:30 (05:30 UTC)


TAF: 丢失

超过4000个机场的气象观测和天气预报(METAR&TAF报告)。

可查询的气象台以黄色和红色小点在地图上表示。

将鼠标移到小点上方,可查看气象台名称。

然后点击查看天气观测和预报。

如需切换地图:点击带黑十字的绿色按钮放大地图;点击带横线的绿色按钮缩小地图;或者点击绿色箭头查看邻近地区的地图。


METAR-TAF: